Time;durP1;ratioP1;P1;durP2;ratioP2;P2;SDS_P1;SDS_P2;PMS_P1;PMS_P2;Temp;Humidity;BMP_temperature;BMP_pressure;BME280_temperature;BME280_humidity;BME280_pressure;Samples;Min_cycle;Max_cycle;Signal;HPM_P1;HPM_P2
2023/06/09 00:01:44;;;;;;;6.75;2.45;;;14.40;99.90;;;;;;4966027;28;20130;-33
2023/06/09 00:04:13;;;;;;;7.75;1.52;;;14.30;99.90;;;;;;4972837;28;20054;-33
2023/06/09 00:06:39;;;;;;;6.75;1.95;;;14.20;99.90;;;;;;4933890;28;20075;-33
2023/06/09 00:09:06;;;;;;;7.10;2.45;;;14.20;99.90;;;;;;4973001;28;20047;-33
2023/06/09 00:11:35;;;;;;;6.45;1.90;;;14.20;99.90;;;;;;4970052;28;20559;-33
2023/06/09 00:14:02;;;;;;;7.40;1.83;;;14.20;99.90;;;;;;4964470;28;20078;-33
2023/06/09 00:16:28;;;;;;;6.35;1.83;;;14.20;99.90;;;;;;4964986;28;20575;-33
2023/06/09 00:19:01;;;;;;;4.75;1.73;;;14.20;99.90;;;;;;4970892;28;20055;-33
2023/06/09 00:21:27;;;;;;;9.00;2.25;;;14.20;99.90;;;;;;4967085;28;20070;-33
2023/06/09 00:23:53;;;;;;;7.10;2.40;;;14.20;99.90;;;;;;4970550;28;20496;-34
2023/06/09 00:26:18;;;;;;;5.18;1.70;;;14.20;99.90;;;;;;4972873;28;20058;-33
2023/06/09 00:28:44;;;;;;;7.70;1.98;;;14.20;99.90;;;;;;4973963;28;20062;-35
2023/06/09 00:31:10;;;;;;;6.28;2.08;;;14.10;99.90;;;;;;4966904;28;20082;-33
2023/06/09 00:33:36;;;;;;;7.07;2.00;;;14.10;99.90;;;;;;4971092;28;20050;-33
2023/06/09 00:36:01;;;;;;;10.30;2.33;;;14.10;99.90;;;;;;4969705;28;20045;-33
2023/06/09 00:38:27;;;;;;;8.27;2.03;;;14.10;99.90;;;;;;4973552;28;20057;-33
2023/06/09 00:40:53;;;;;;;6.15;1.80;;;14.00;99.90;;;;;;4976273;28;20093;-33
2023/06/09 00:43:19;;;;;;;6.55;1.92;;;14.00;99.90;;;;;;4970906;28;20075;-33
2023/06/09 00:45:45;;;;;;;5.07;2.05;;;14.00;99.90;;;;;;4968219;28;20128;-33
2023/06/09 00:48:11;;;;;;;5.88;1.77;;;14.00;99.90;;;;;;4938842;28;20042;-33
2023/06/09 00:50:38;;;;;;;4.93;1.45;;;13.90;99.90;;;;;;4963469;28;20492;-33
2023/06/09 00:53:04;;;;;;;7.85;1.98;;;13.90;99.90;;;;;;4970407;28;20183;-33
2023/06/09 00:55:30;;;;;;;7.10;2.00;;;13.90;99.90;;;;;;4967087;28;20065;-33
2023/06/09 00:58:00;;;;;;;8.13;1.83;;;13.90;99.90;;;;;;4961919;28;20054;-33
2023/06/09 01:00:29;;;;;;;5.25;1.80;;;13.90;99.90;;;;;;4969716;28;20051;-33
2023/06/09 01:03:01;;;;;;;8.73;2.15;;;13.90;99.90;;;;;;4968286;28;20050;-33
2023/06/09 01:05:36;;;;;;;8.13;2.33;;;13.90;99.90;;;;;;4960112;28;20059;-33
2023/06/09 01:08:30;;;;;;;9.43;1.90;;;13.90;99.90;;;;;;4971126;28;20054;-33
2023/06/09 01:11:36;;;;;;;5.60;1.92;;;13.90;99.90;;;;;;4966747;28;20055;-33
2023/06/09 01:14:27;;;;;;;7.63;2.00;;;13.90;99.90;;;;;;4952036;28;20050;-33
2023/06/09 01:17:03;;;;;;;8.38;3.67;;;13.90;99.90;;;;;;4968461;28;20101;-33
2023/06/09 01:19:36;;;;;;;9.70;1.98;;;13.90;99.90;;;;;;4951776;28;20043;-33
2023/06/09 01:22:11;;;;;;;5.70;1.90;;;13.80;99.90;;;;;;4962662;28;20061;-33
2023/06/09 01:24:47;;;;;;;7.30;2.30;;;13.90;99.90;;;;;;4963454;28;20042;-33
2023/06/09 01:27:16;;;;;;;7.90;2.15;;;13.90;99.90;;;;;;4951079;28;20046;-33
2023/06/09 01:29:44;;;;;;;6.32;2.10;;;13.90;99.90;;;;;;4967304;28;20088;-33
2023/06/09 01:32:12;;;;;;;7.97;2.13;;;13.80;99.90;;;;;;4954811;28;20063;-33
2023/06/09 01:34:39;;;;;;;10.07;2.17;;;13.90;99.90;;;;;;4967568;28;20389;-33
2023/06/09 01:37:05;;;;;;;9.38;3.35;;;13.90;99.90;;;;;;4963759;28;20074;-33
2023/06/09 01:39:32;;;;;;;5.97;1.80;;;13.90;99.90;;;;;;4968967;28;20059;-33
2023/06/09 01:41:57;;;;;;;7.38;2.35;;;13.90;99.90;;;;;;4964113;28;20488;-33
2023/06/09 01:44:23;;;;;;;9.30;2.22;;;13.90;99.90;;;;;;4966375;28;20057;-33
2023/06/09 01:46:49;;;;;;;6.15;2.10;;;13.90;99.90;;;;;;4968385;28;20136;-33
2023/06/09 01:49:22;;;;;;;7.60;2.30;;;13.80;99.90;;;;;;4965316;28;20055;-33
2023/06/09 01:51:56;;;;;;;5.75;2.00;;;13.80;99.90;;;;;;4964513;28;20488;-33
2023/06/09 01:54:33;;;;;;;8.07;2.38;;;13.80;99.90;;;;;;4966911;28;20495;-33
2023/06/09 01:57:06;;;;;;;5.97;2.00;;;13.80;99.90;;;;;;4965220;28;20070;-33
2023/06/09 02:02:10;;;;;;;7.57;3.42;;;13.80;99.90;;;;;;5417259;23;20066;-34
2023/06/09 02:04:37;;;;;;;8.43;2.40;;;13.80;99.90;;;;;;4943680;28;20158;-34
2023/06/09 02:07:05;;;;;;;9.50;3.58;;;13.80;99.90;;;;;;4944544;28;20130;-34
2023/06/09 02:09:32;;;;;;;10.68;2.60;;;13.80;99.90;;;;;;4946954;28;20062;-34
2023/06/09 02:11:59;;;;;;;9.35;2.75;;;13.80;99.90;;;;;;4939464;28;20117;-34
2023/06/09 02:14:33;;;;;;;7.90;2.22;;;13.80;99.90;;;;;;4932070;28;20059;-34
2023/06/09 02:17:02;;;;;;;8.18;2.90;;;13.80;99.90;;;;;;4936477;28;20489;-34
2023/06/09 02:19:28;;;;;;;7.85;2.33;;;13.80;99.90;;;;;;4930204;28;20055;-34
2023/06/09 02:21:54;;;;;;;6.30;1.98;;;13.80;99.90;;;;;;4927551;28;20161;-34
2023/06/09 02:24:20;;;;;;;7.03;2.67;;;13.80;99.90;;;;;;4937407;28;20519;-34
2023/06/09 02:26:49;;;;;;;10.27;2.78;;;13.80;99.90;;;;;;4947379;28;20142;-34
2023/06/09 02:29:15;;;;;;;7.70;2.70;;;13.80;99.90;;;;;;4947386;28;20047;-34
2023/06/09 02:31:41;;;;;;;7.63;2.63;;;13.70;99.90;;;;;;4946837;28;20054;-34
2023/06/09 02:34:06;;;;;;;11.70;3.17;;;13.70;99.90;;;;;;4947265;28;20054;-34
2023/06/09 02:36:32;;;;;;;6.72;2.63;;;13.70;99.90;;;;;;4942063;28;20063;-34
2023/06/09 02:38:58;;;;;;;7.55;2.40;;;13.70;99.90;;;;;;4930930;28;20051;-34
2023/06/09 02:41:23;;;;;;;6.82;2.53;;;13.60;99.90;;;;;;4952778;28;20492;-34
2023/06/09 02:43:49;;;;;;;6.40;2.42;;;13.60;99.90;;;;;;4945383;28;20053;-34
2023/06/09 02:46:17;;;;;;;8.63;2.50;;;13.60;99.90;;;;;;4946118;28;20493;-34
2023/06/09 02:48:42;;;;;;;7.88;3.05;;;13.60;99.90;;;;;;4949454;28;20067;-39
2023/06/09 02:51:08;;;;;;;10.15;3.20;;;13.50;99.90;;;;;;4950676;28;20064;-34
2023/06/09 02:53:34;;;;;;;10.30;2.80;;;13.50;99.90;;;;;;4947910;28;20062;-34
2023/06/09 02:55:59;;;;;;;9.65;2.90;;;13.50;99.90;;;;;;4944544;28;20133;-34
2023/06/09 02:58:25;;;;;;;6.97;2.35;;;13.50;99.90;;;;;;4942920;28;20046;-34
2023/06/09 03:00:51;;;;;;;8.38;2.50;;;13.40;99.90;;;;;;4947674;28;20051;-34
2023/06/09 03:03:17;;;;;;;7.30;2.55;;;13.40;99.90;;;;;;4942264;28;20109;-34
2023/06/09 03:05:44;;;;;;;8.80;2.90;;;13.40;99.90;;;;;;4930415;28;20563;-34
2023/06/09 03:08:09;;;;;;;7.38;2.60;;;13.40;99.90;;;;;;4943770;28;20051;-34
2023/06/09 03:10:35;;;;;;;9.98;3.10;;;13.30;99.90;;;;;;4951292;28;20043;-34
2023/06/09 03:13:01;;;;;;;9.55;2.78;;;13.30;99.90;;;;;;4931717;28;20551;-34
2023/06/09 03:15:28;;;;;;;9.13;3.03;;;13.30;99.90;;;;;;4948961;28;20126;-34
2023/06/09 03:17:54;;;;;;;10.63;3.25;;;13.20;99.90;;;;;;4949744;28;20134;-35
2023/06/09 03:20:19;;;;;;;12.00;4.22;;;13.20;99.90;;;;;;4944137;28;20480;-35
2023/06/09 03:22:45;;;;;;;9.95;3.20;;;13.20;99.90;;;;;;4946590;28;20055;-36
2023/06/09 03:25:12;;;;;;;11.95;2.83;;;13.10;99.90;;;;;;4941752;28;20059;-34
2023/06/09 03:27:38;;;;;;;9.57;2.78;;;13.10;99.90;;;;;;4948812;28;20083;-34
2023/06/09 03:30:05;;;;;;;9.18;3.70;;;13.10;99.90;;;;;;4944078;28;20142;-34
2023/06/09 03:32:31;;;;;;;12.70;3.38;;;13.10;99.90;;;;;;4939111;28;20043;-34
2023/06/09 03:34:57;;;;;;;8.93;3.03;;;13.10;99.90;;;;;;4946109;28;20054;-34
2023/06/09 03:37:22;;;;;;;12.18;4.25;;;13.00;99.90;;;;;;4945797;28;20094;-34
2023/06/09 03:39:48;;;;;;;9.02;3.30;;;13.00;99.90;;;;;;4939599;28;20047;-34
2023/06/09 03:42:13;;;;;;;10.48;3.10;;;13.00;99.90;;;;;;4943724;28;20051;-34
2023/06/09 03:44:39;;;;;;;10.70;3.42;;;13.00;99.90;;;;;;4945775;28;20463;-34
2023/06/09 03:47:06;;;;;;;17.80;3.75;;;12.90;99.90;;;;;;4946212;28;20579;-34
2023/06/09 03:49:31;;;;;;;8.68;3.25;;;13.00;99.90;;;;;;4944321;28;20408;-34
2023/06/09 03:51:57;;;;;;;12.75;4.80;;;13.00;99.90;;;;;;4944963;28;20055;-34
2023/06/09 03:54:23;;;;;;;9.30;2.92;;;13.00;99.90;;;;;;4942449;28;20067;-34
2023/06/09 03:56:48;;;;;;;9.95;2.92;;;13.00;99.90;;;;;;4947832;28;20058;-34
2023/06/09 03:59:15;;;;;;;11.02;3.42;;;13.00;99.90;;;;;;4929307;28;20059;-34
2023/06/09 04:01:40;;;;;;;8.18;3.05;;;13.00;99.90;;;;;;4943129;28;20063;-34
2023/06/09 04:04:06;;;;;;;12.32;3.83;;;13.00;99.90;;;;;;4943833;28;20508;-34
2023/06/09 04:06:32;;;;;;;11.15;3.20;;;13.10;99.90;;;;;;4947590;28;20560;-34
2023/06/09 04:08:58;;;;;;;8.05;3.25;;;13.00;99.90;;;;;;4951586;28;20547;-34
2023/06/09 04:11:24;;;;;;;13.27;4.65;;;13.00;99.90;;;;;;4954599;28;20137;-35
2023/06/09 04:13:52;;;;;;;10.13;4.05;;;13.00;99.90;;;;;;4947122;28;20076;-35
2023/06/09 04:16:18;;;;;;;10.63;3.67;;;13.10;99.90;;;;;;4951113;28;20560;-35
2023/06/09 04:18:43;;;;;;;11.18;3.75;;;13.00;99.90;;;;;;4949347;28;20150;-35
2023/06/09 04:21:11;;;;;;;9.45;3.50;;;13.00;99.90;;;;;;4949213;28;20507;-35
2023/06/09 04:23:38;;;;;;;8.55;3.45;;;13.00;99.90;;;;;;4949417;28;20054;-34
2023/06/09 04:26:05;;;;;;;7.43;3.15;;;13.00;99.90;;;;;;4932375;28;20051;-35
2023/06/09 04:28:32;;;;;;;10.48;4.07;;;13.10;99.90;;;;;;4952176;28;20055;-34
2023/06/09 04:30:58;;;;;;;18.45;4.55;;;13.10;99.90;;;;;;4950011;28;20058;-34
2023/06/09 04:33:26;;;;;;;11.75;4.05;;;13.10;99.90;;;;;;4944426;28;20055;-35
2023/06/09 04:35:54;;;;;;;12.60;4.63;;;13.10;99.90;;;;;;4944081;28;20043;-35
2023/06/09 04:38:23;;;;;;;9.95;3.60;;;13.10;99.90;;;;;;4943242;28;20126;-34
2023/06/09 04:40:49;;;;;;;10.98;4.20;;;13.10;99.90;;;;;;4928361;29;20055;-35
2023/06/09 04:43:16;;;;;;;11.48;4.13;;;13.20;99.90;;;;;;4947744;28;20058;-35
2023/06/09 04:45:43;;;;;;;11.77;4.00;;;13.20;99.90;;;;;;4948735;28;20047;-35
2023/06/09 04:48:09;;;;;;;16.58;4.63;;;13.30;99.90;;;;;;4946507;28;20075;-34
2023/06/09 04:50:36;;;;;;;11.95;4.10;;;13.30;99.90;;;;;;4951611;28;20070;-35
2023/06/09 04:53:07;;;;;;;13.25;4.15;;;13.40;99.90;;;;;;4949483;28;20051;-34
2023/06/09 04:55:33;;;;;;;10.73;4.00;;;13.40;99.90;;;;;;4954391;28;20075;-35
2023/06/09 04:57:59;;;;;;;12.27;3.85;;;13.50;99.90;;;;;;4951698;28;20055;-34
2023/06/09 05:00:28;;;;;;;11.13;3.80;;;13.40;99.90;;;;;;4934090;28;20055;-35
2023/06/09 05:02:57;;;;;;;11.57;3.85;;;13.50;99.90;;;;;;4946637;28;20066;-34
2023/06/09 05:05:22;;;;;;;9.88;3.92;;;13.50;99.90;;;;;;4954681;28;20547;-35
2023/06/09 05:07:48;;;;;;;10.52;3.90;;;13.60;99.90;;;;;;4950187;28;20113;-34
2023/06/09 05:10:14;;;;;;;10.23;3.42;;;13.60;99.90;;;;;;4947009;28;20385;-35
2023/06/09 05:12:40;;;;;;;10.80;4.13;;;13.70;99.90;;;;;;4942423;28;20466;-34
2023/06/09 05:15:06;;;;;;;11.15;4.05;;;13.80;99.90;;;;;;4944995;28;20087;-34
2023/06/09 05:17:33;;;;;;;9.52;3.63;;;13.90;99.90;;;;;;4949197;28;20047;-34
2023/06/09 05:19:59;;;;;;;9.38;3.38;;;13.90;99.90;;;;;;4944744;28;20055;-34
2023/06/09 05:22:25;;;;;;;10.15;4.53;;;14.00;99.90;;;;;;4946618;28;20050;-34
2023/06/09 05:24:51;;;;;;;13.55;4.45;;;14.10;99.90;;;;;;4948970;28;20086;-34
2023/06/09 05:27:17;;;;;;;8.38;4.28;;;14.10;99.90;;;;;;4942188;28;20047;-34
2023/06/09 05:29:43;;;;;;;10.15;3.47;;;14.20;99.90;;;;;;4952488;28;20098;-34
2023/06/09 05:32:09;;;;;;;9.27;3.72;;;14.20;99.90;;;;;;4942131;28;20062;-34
2023/06/09 05:34:34;;;;;;;9.73;3.97;;;14.30;99.90;;;;;;4955224;28;20059;-35
2023/06/09 05:37:00;;;;;;;12.80;3.78;;;14.40;99.90;;;;;;4940738;28;20481;-35
2023/06/09 05:39:25;;;;;;;11.45;4.47;;;14.50;99.90;;;;;;4946742;28;20058;-35
2023/06/09 05:41:51;;;;;;;9.35;3.60;;;14.50;99.90;;;;;;4944474;28;20067;-35
2023/06/09 05:44:18;;;;;;;10.80;3.67;;;14.60;99.90;;;;;;4945310;28;20047;-35
2023/06/09 05:46:43;;;;;;;12.60;4.63;;;14.70;99.90;;;;;;4936112;28;20486;-34
2023/06/09 05:49:09;;;;;;;11.48;4.07;;;14.80;99.90;;;;;;4951729;28;20090;-34
2023/06/09 05:51:35;;;;;;;11.18;4.25;;;14.90;99.90;;;;;;4941591;28;20083;-34
2023/06/09 05:54:01;;;;;;;13.50;4.20;;;15.00;99.90;;;;;;4946635;28;20138;-34
2023/06/09 05:56:26;;;;;;;11.27;3.85;;;15.10;99.90;;;;;;4945264;28;20086;-34
2023/06/09 05:58:54;;;;;;;11.77;3.83;;;15.20;99.90;;;;;;4943585;28;20051;-34
2023/06/09 06:01:21;;;;;;;12.25;4.03;;;15.30;99.90;;;;;;4937879;28;20051;-34
2023/06/09 06:03:47;;;;;;;13.32;4.43;;;15.40;99.90;;;;;;4951017;28;20489;-34
2023/06/09 06:06:13;;;;;;;9.65;3.30;;;15.50;99.90;;;;;;4939814;28;20055;-34
2023/06/09 06:08:39;;;;;;;9.15;3.35;;;15.60;99.90;;;;;;4951879;28;20474;-34
2023/06/09 06:11:05;;;;;;;9.60;3.30;;;15.70;99.90;;;;;;4937217;28;20113;-34
2023/06/09 06:13:30;;;;;;;8.88;3.10;;;15.90;99.90;;;;;;4940745;28;20147;-34
2023/06/09 06:16:00;;;;;;;7.60;3.20;;;16.00;99.90;;;;;;4933957;28;20043;-34
2023/06/09 06:18:26;;;;;;;9.00;3.83;;;16.10;99.90;;;;;;4935430;28;20417;-34
2023/06/09 06:20:51;;;;;;;10.55;3.67;;;16.20;99.90;;;;;;4941781;28;20051;-34
2023/06/09 06:23:17;;;;;;;11.10;3.50;;;16.30;99.90;;;;;;4943458;28;20130;-34
2023/06/09 06:25:42;;;;;;;7.55;3.00;;;16.40;99.90;;;;;;4940497;28;20055;-34
2023/06/09 06:28:10;;;;;;;8.55;3.15;;;16.50;99.90;;;;;;4952590;28;20054;-34
2023/06/09 06:30:37;;;;;;;8.77;3.10;;;16.70;99.90;;;;;;4950785;28;20059;-35
2023/06/09 06:33:03;;;;;;;8.98;3.38;;;16.80;99.90;;;;;;4944917;28;20058;-36
2023/06/09 06:35:29;;;;;;;11.40;3.70;;;16.90;99.90;;;;;;4916123;28;21803;-35
2023/06/09 06:37:55;;;;;;;10.10;4.28;;;17.10;99.90;;;;;;4944592;28;20176;-36
2023/06/09 06:40:22;;;;;;;7.97;3.72;;;17.20;99.90;;;;;;4947796;28;20086;-36
2023/06/09 06:42:48;;;;;;;9.50;4.03;;;17.30;99.90;;;;;;4932550;28;20055;-35
2023/06/09 06:45:14;;;;;;;11.82;3.47;;;17.40;99.90;;;;;;4937411;28;20378;-35
2023/06/09 06:47:41;;;;;;;9.55;3.60;;;17.50;99.90;;;;;;4939233;28;20043;-35
2023/06/09 06:50:08;;;;;;;7.82;3.35;;;17.60;99.90;;;;;;4937795;28;20460;-35
2023/06/09 06:52:34;;;;;;;12.38;4.00;;;17.80;99.90;;;;;;4934180;28;20055;-35
2023/06/09 06:54:59;;;;;;;9.45;4.00;;;17.90;99.90;;;;;;4950512;28;20677;-35
2023/06/09 06:57:25;;;;;;;7.53;3.47;;;18.00;99.90;;;;;;4929155;28;20493;-34
2023/06/09 06:59:51;;;;;;;10.05;3.33;;;18.10;99.90;;;;;;4951218;28;20082;-35
2023/06/09 07:02:17;;;;;;;11.48;3.80;;;18.20;99.90;;;;;;4946514;28;20069;-35
2023/06/09 07:04:43;;;;;;;7.63;3.65;;;18.30;99.90;;;;;;4950491;28;20055;-35
2023/06/09 07:07:09;;;;;;;8.10;3.70;;;18.40;99.90;;;;;;4944626;28;20390;-35
2023/06/09 07:09:35;;;;;;;9.60;3.70;;;18.50;99.90;;;;;;4942327;28;20062;-35
2023/06/09 07:12:02;;;;;;;8.35;3.83;;;18.70;99.90;;;;;;4934965;28;20178;-35
2023/06/09 07:14:30;;;;;;;8.63;3.80;;;18.80;99.90;;;;;;4920420;29;20098;-34
2023/06/09 07:16:56;;;;;;;9.35;3.55;;;18.90;99.90;;;;;;4941944;28;20122;-35
2023/06/09 07:19:21;;;;;;;10.68;4.43;;;19.00;99.90;;;;;;4945386;28;20055;-35
2023/06/09 07:21:47;;;;;;;9.68;3.90;;;19.10;99.90;;;;;;4943746;28;20772;-35
2023/06/09 07:24:13;;;;;;;10.20;4.53;;;19.30;99.90;;;;;;4941737;28;20055;-35
2023/06/09 07:26:38;;;;;;;12.52;3.97;;;19.30;99.90;;;;;;4944335;28;20059;-35
2023/06/09 07:29:04;;;;;;;10.93;4.18;;;19.50;99.90;;;;;;4948852;28;20078;-35
2023/06/09 07:31:30;;;;;;;8.27;3.90;;;19.60;99.90;;;;;;4943642;28;20082;-35
2023/06/09 07:33:56;;;;;;;8.15;3.55;;;19.70;99.90;;;;;;4941464;28;20130;-35
2023/06/09 07:36:22;;;;;;;7.22;3.42;;;19.80;99.90;;;;;;4940365;28;20600;-34
2023/06/09 07:38:47;;;;;;;7.15;3.95;;;20.00;99.90;;;;;;4942948;28;20591;-34
2023/06/09 07:41:14;;;;;;;9.05;4.10;;;20.00;99.90;;;;;;4941459;28;22172;-35
2023/06/09 07:43:39;;;;;;;10.10;3.35;;;20.10;99.90;;;;;;4947310;28;20731;-34
2023/06/09 07:46:05;;;;;;;7.63;3.53;;;20.30;99.90;;;;;;4937408;28;20130;-35
2023/06/09 07:48:31;;;;;;;6.43;3.28;;;20.40;99.90;;;;;;4935299;28;20416;-35
2023/06/09 07:50:56;;;;;;;8.55;3.42;;;20.40;99.90;;;;;;4948167;28;20404;-35
2023/06/09 07:53:22;;;;;;;8.13;3.65;;;20.50;99.90;;;;;;4944699;28;20051;-34
2023/06/09 07:55:48;;;;;;;9.50;3.17;;;20.50;99.90;;;;;;4942351;28;20077;-35
2023/06/09 07:58:14;;;;;;;5.65;3.50;;;20.60;99.90;;;;;;4954387;28;20078;-34
2023/06/09 08:00:41;;;;;;;9.77;3.53;;;20.70;99.90;;;;;;4952163;28;20047;-34
2023/06/09 08:03:06;;;;;;;9.57;3.70;;;20.80;99.90;;;;;;4950289;28;20492;-35
2023/06/09 08:05:32;;;;;;;4.40;2.75;;;20.90;99.90;;;;;;4933972;28;20070;-35
2023/06/09 08:08:00;;;;;;;7.72;2.97;;;20.90;99.90;;;;;;4952775;28;20404;-36
2023/06/09 08:10:26;;;;;;;5.28;2.65;;;21.00;99.90;;;;;;4946715;28;20059;-35
2023/06/09 08:12:51;;;;;;;8.60;3.47;;;21.10;99.90;;;;;;4953562;28;21676;-36
2023/06/09 08:15:18;;;;;;;9.15;3.65;;;21.30;99.90;;;;;;4945645;28;20051;-35
2023/06/09 08:17:43;;;;;;;11.48;3.53;;;21.40;99.90;;;;;;4944414;28;20066;-35
2023/06/09 08:20:09;;;;;;;8.63;3.55;;;21.50;99.90;;;;;;4948679;28;20078;-36
2023/06/09 08:22:35;;;;;;;6.10;3.00;;;21.60;99.90;;;;;;4949237;28;20047;-36
2023/06/09 08:25:02;;;;;;;7.15;2.83;;;21.80;99.90;;;;;;4948370;28;20066;-35
2023/06/09 08:27:27;;;;;;;7.82;3.13;;;21.90;99.90;;;;;;4950489;28;20054;-35
2023/06/09 08:29:53;;;;;;;6.47;3.00;;;21.90;99.90;;;;;;4952885;28;20051;-35
2023/06/09 08:32:19;;;;;;;7.20;3.05;;;22.00;99.90;;;;;;4952291;28;20461;-36
2023/06/09 08:34:44;;;;;;;8.45;3.10;;;22.10;99.90;;;;;;4949698;28;20119;-36
2023/06/09 08:37:10;;;;;;;7.07;3.08;;;22.20;99.90;;;;;;4946452;28;20055;-36
2023/06/09 08:39:36;;;;;;;4.72;2.70;;;22.30;99.90;;;;;;4952012;28;20047;-36
2023/06/09 08:42:07;;;;;;;7.28;2.70;;;22.50;99.90;;;;;;4945095;28;20138;-36
2023/06/09 08:44:40;;;;;;;5.93;2.92;;;22.60;99.90;;;;;;4945636;28;20494;-35
2023/06/09 08:47:08;;;;;;;5.07;2.15;;;22.70;99.90;;;;;;4950530;28;20887;-35
2023/06/09 08:49:35;;;;;;;6.90;3.40;;;22.80;99.90;;;;;;4951253;28;20125;-35
2023/06/09 08:52:04;;;;;;;5.40;3.05;;;23.00;99.90;;;;;;4953411;28;20671;-35
2023/06/09 08:54:30;;;;;;;7.55;2.90;;;23.20;99.90;;;;;;4948440;28;20162;-35
2023/06/09 08:56:56;;;;;;;7.93;2.92;;;23.30;99.90;;;;;;4944795;28;20055;-36
2023/06/09 08:59:23;;;;;;;5.75;2.60;;;23.40;99.90;;;;;;4948350;28;20496;-35
2023/06/09 09:01:49;;;;;;;7.10;2.88;;;23.60;99.90;;;;;;4952631;28;20070;-36
2023/06/09 09:04:19;;;;;;;6.72;2.95;;;23.80;99.90;;;;;;4947779;28;20134;-35
2023/06/09 09:06:45;;;;;;;5.43;2.85;;;23.90;99.90;;;;;;4937797;28;20055;-35
2023/06/09 09:09:11;;;;;;;7.38;2.65;;;24.00;99.90;;;;;;4950908;28;20055;-35
2023/06/09 09:11:37;;;;;;;6.30;2.75;;;24.10;99.90;;;;;;4941023;28;20065;-35
2023/06/09 09:14:10;;;;;;;6.10;2.95;;;24.20;99.90;;;;;;4942912;28;20493;-35
2023/06/09 09:16:36;;;;;;;5.60;3.13;;;24.40;99.90;;;;;;4945612;28;20138;-35
2023/06/09 09:19:03;;;;;;;8.25;3.30;;;24.40;99.90;;;;;;4953078;28;20134;-35
2023/06/09 09:21:29;;;;;;;4.63;2.70;;;24.50;99.90;;;;;;4935804;28;20067;-35
2023/06/09 09:24:01;;;;;;;8.85;3.30;;;24.60;99.90;;;;;;4940807;28;20130;-35
2023/06/09 09:26:30;;;;;;;6.15;3.25;;;24.60;99.90;;;;;;4951921;28;20117;-35
2023/06/09 09:29:00;;;;;;;6.28;2.90;;;24.70;99.90;;;;;;4951144;28;20055;-36
2023/06/09 09:31:35;;;;;;;6.57;3.17;;;24.90;99.90;;;;;;4958464;28;20575;-33
2023/06/09 09:34:01;;;;;;;6.15;2.80;;;25.00;99.90;;;;;;4950958;28;20050;-33
2023/06/09 09:36:27;;;;;;;7.63;3.38;;;25.10;99.90;;;;;;4946249;28;20059;-33
2023/06/09 09:38:55;;;;;;;5.05;3.10;;;25.10;99.90;;;;;;4948379;28;20051;-33
2023/06/09 09:41:21;;;;;;;5.40;3.33;;;25.20;99.90;;;;;;4945120;28;20059;-34
2023/06/09 09:43:46;;;;;;;4.03;2.70;;;25.30;99.90;;;;;;4948056;28;20056;-34
2023/06/09 09:46:12;;;;;;;5.75;3.08;;;25.40;99.90;;;;;;4947551;28;20051;-34
2023/06/09 09:48:38;;;;;;;6.95;3.08;;;25.50;99.90;;;;;;4951751;28;20051;-34
2023/06/09 09:51:06;;;;;;;5.75;2.92;;;25.60;99.90;;;;;;4951024;28;20059;-34
2023/06/09 09:53:32;;;;;;;6.38;3.22;;;25.70;99.90;;;;;;4944473;28;20055;-34
2023/06/09 09:56:00;;;;;;;8.00;3.70;;;25.80;99.90;;;;;;4943893;28;20057;-34
2023/06/09 09:58:33;;;;;;;9.40;3.45;;;25.90;99.90;;;;;;4944709;28;20993;-34
2023/06/09 10:01:07;;;;;;;10.27;3.22;;;26.00;99.90;;;;;;4947403;28;22375;-34
2023/06/09 10:03:42;;;;;;;10.13;2.92;;;26.00;99.90;;;;;;4941829;28;20153;-34
2023/06/09 10:06:10;;;;;;;7.65;3.30;;;26.10;99.90;;;;;;4931725;28;20143;-34
2023/06/09 10:08:39;;;;;;;5.53;3.22;;;26.20;99.90;;;;;;4935029;28;20063;-34
2023/06/09 10:11:07;;;;;;;6.13;3.65;;;26.40;99.90;;;;;;4931180;28;20164;-34
2023/06/09 10:13:33;;;;;;;5.93;3.20;;;26.40;99.90;;;;;;4928061;29;20094;-34
2023/06/09 10:15:59;;;;;;;6.88;3.47;;;26.50;99.90;;;;;;4926107;28;20054;-34
2023/06/09 10:18:26;;;;;;;5.50;3.10;;;26.70;99.90;;;;;;4933177;29;20052;-35
2023/06/09 10:20:52;;;;;;;7.80;4.22;;;26.70;99.90;;;;;;4930509;28;20142;-34
2023/06/09 10:23:19;;;;;;;8.50;3.80;;;26.80;99.90;;;;;;4930758;28;20055;-34
2023/06/09 10:25:52;;;;;;;6.22;3.55;;;26.90;99.90;;;;;;4911676;29;20052;-34
2023/06/09 10:28:19;;;;;;;11.63;3.85;;;27.00;99.90;;;;;;4923231;29;20098;-34
2023/06/09 10:30:47;;;;;;;6.22;3.47;;;27.00;99.90;;;;;;4926585;29;20050;-34
2023/06/09 10:33:33;;;;;;;10.60;3.78;;;27.20;99.90;;;;;;4902269;29;20058;-34
2023/06/09 10:36:03;;;;;;;7.00;4.03;;;27.30;99.90;;;;;;4906090;29;20047;-34
2023/06/09 10:38:40;;;;;;;11.07;3.50;;;27.40;99.90;;;;;;4923672;28;20039;-34
2023/06/09 10:41:18;;;;;;;5.65;3.50;;;27.40;99.90;;;;;;4919562;28;20518;-34
2023/06/09 10:44:09;;;;;;;5.57;3.00;;;27.50;99.90;;;;;;4919885;29;20397;-34
2023/06/09 10:46:42;;;;;;;5.80;2.92;;;27.60;99.90;;;;;;4917983;29;20394;-35
2023/06/09 10:49:23;;;;;;;9.55;3.20;;;27.70;99.90;;;;;;4928453;29;20138;-34
2023/06/09 10:51:49;;;;;;;8.47;3.40;;;27.80;99.90;;;;;;4922624;29;20110;-34
2023/06/09 10:54:15;;;;;;;6.28;3.67;;;28.00;99.90;;;;;;4926578;28;20343;-34
2023/06/09 10:57:05;;;;;;;6.05;3.20;;;28.10;99.90;;;;;;4922448;29;20051;-34
2023/06/09 10:59:30;;;;;;;6.25;2.78;;;28.20;99.90;;;;;;4923233;29;20043;-34
2023/06/09 11:02:02;;;;;;;5.43;3.47;;;28.20;99.90;;;;;;4913352;29;20074;-34
2023/06/09 11:07:20;;;;;;;5.53;3.00;;;28.30;99.90;;;;;;4927474;29;20517;-35
2023/06/09 11:09:51;;;;;;;5.45;3.10;;;28.40;99.90;;;;;;4923263;28;20103;-34
2023/06/09 11:12:35;;;;;;;6.68;3.28;;;28.50;99.90;;;;;;4921976;29;20134;-34
2023/06/09 11:15:02;;;;;;;6.07;3.30;;;28.60;99.90;;;;;;4926083;28;20502;-34
2023/06/09 11:17:43;;;;;;;6.47;3.47;;;28.60;99.90;;;;;;4917441;29;20139;-34
2023/06/09 11:20:08;;;;;;;6.22;3.38;;;28.70;99.90;;;;;;4922901;28;20390;-34
2023/06/09 11:22:40;;;;;;;5.85;3.10;;;28.80;99.90;;;;;;4926994;28;20056;-34
2023/06/09 11:25:06;;;;;;;6.88;2.78;;;28.90;99.90;;;;;;4924522;29;20115;-34
2023/06/09 11:27:32;;;;;;;6.57;2.63;;;29.00;99.90;;;;;;4914737;29;20122;-34
2023/06/09 11:30:11;;;;;;;5.63;3.05;;;29.00;99.90;;;;;;4914724;28;20130;-35
2023/06/09 11:33:00;;;;;;;5.28;3.33;;;29.20;99.90;;;;;;4930118;28;20188;-35
2023/06/09 11:35:29;;;;;;;7.57;3.33;;;29.30;99.90;;;;;;4929517;28;20090;-35
2023/06/09 11:37:56;;;;;;;5.45;2.88;;;29.40;99.90;;;;;;4925369;29;20504;-34
2023/06/09 11:40:23;;;;;;;4.20;2.60;;;29.50;99.90;;;;;;4920924;29;20063;-35
2023/06/09 11:42:49;;;;;;;4.95;3.30;;;29.70;99.90;;;;;;4913329;28;20111;-35
2023/06/09 11:45:15;;;;;;;6.78;3.55;;;29.80;99.90;;;;;;4912980;29;20079;-35
2023/06/09 11:47:42;;;;;;;6.18;3.03;;;29.80;99.90;;;;;;4917248;29;20465;-35
2023/06/09 11:50:14;;;;;;;5.68;3.15;;;29.80;99.90;;;;;;4914345;28;20043;-35
2023/06/09 11:52:44;;;;;;;7.38;3.50;;;29.80;99.90;;;;;;4914511;28;20060;-35
2023/06/09 11:55:13;;;;;;;9.45;3.35;;;29.90;99.90;;;;;;4912104;29;20040;-36
2023/06/09 11:57:39;;;;;;;3.63;3.03;;;29.90;99.90;;;;;;4912012;28;20114;-36
2023/06/09 12:00:12;;;;;;;5.53;3.25;;;29.90;99.90;;;;;;4916028;29;20052;-36
2023/06/09 12:02:41;;;;;;;6.38;3.10;;;30.00;99.90;;;;;;4923380;28;20471;-36
2023/06/09 12:05:11;;;;;;;4.40;3.15;;;30.00;99.90;;;;;;4942370;28;20428;-36
2023/06/09 12:07:37;;;;;;;4.72;3.05;;;30.20;99.90;;;;;;4943731;28;20051;-35
2023/06/09 12:10:04;;;;;;;5.32;3.20;;;30.30;99.90;;;;;;4937586;28;20062;-36
2023/06/09 12:12:30;;;;;;;8.70;3.67;;;30.40;99.90;;;;;;4939735;28;20138;-36
2023/06/09 12:14:55;;;;;;;5.07;2.80;;;30.50;99.90;;;;;;4940761;28;20171;-36
2023/06/09 12:17:22;;;;;;;6.07;2.85;;;30.50;99.90;;;;;;4942488;28;20047;-36
2023/06/09 12:19:49;;;;;;;7.57;3.38;;;30.60;99.90;;;;;;4943524;28;20063;-36
2023/06/09 12:22:16;;;;;;;5.03;2.85;;;30.60;99.90;;;;;;4943584;28;20151;-36
2023/06/09 12:24:43;;;;;;;4.07;3.00;;;30.60;99.90;;;;;;4946682;28;20536;-36
2023/06/09 12:27:13;;;;;;;5.70;3.10;;;30.70;99.90;;;;;;4945906;28;20449;-36
2023/06/09 12:29:39;;;;;;;6.35;2.65;;;30.80;99.90;;;;;;4950333;28;20138;-40
2023/06/09 12:32:08;;;;;;;3.80;2.70;;;30.90;99.90;;;;;;4950613;28;20055;-36
2023/06/09 12:34:34;;;;;;;5.07;3.22;;;31.00;99.90;;;;;;4952888;28;20504;-36
2023/06/09 12:37:04;;;;;;;4.55;2.90;;;31.20;99.90;;;;;;4943348;28;20516;-35
2023/06/09 12:39:34;;;;;;;4.43;3.10;;;31.30;99.90;;;;;;4942195;28;20043;-36
2023/06/09 12:42:14;;;;;;;4.47;3.30;;;31.30;99.90;;;;;;4930053;28;20087;-36
2023/06/09 12:44:40;;;;;;;4.55;3.08;;;31.40;99.90;;;;;;4934775;28;20059;-35
2023/06/09 12:47:13;;;;;;;5.35;3.25;;;31.50;99.90;;;;;;4935879;28;20063;-35
2023/06/09 12:49:43;;;;;;;4.68;3.15;;;31.60;99.90;;;;;;4936211;28;20063;-34
2023/06/09 12:52:08;;;;;;;6.13;3.15;;;31.70;99.90;;;;;;4939174;28;20506;-35
2023/06/09 12:54:34;;;;;;;9.88;3.30;;;31.60;99.90;;;;;;4938822;28;20063;-36